sensor_id;sensor_type;location;lat;lon;timestamp;P1;durP1;ratioP1;P2;durP2;ratioP2
71965;SDS011;59836;52.132;5.442;2022-11-11T00:01:00;10.10;;;5.45;;
71965;SDS011;59836;52.132;5.442;2022-11-11T00:03:33;12.57;;;5.60;;
71965;SDS011;59836;52.132;5.442;2022-11-11T00:06:00;9.57;;;5.43;;
71965;SDS011;59836;52.132;5.442;2022-11-11T00:08:27;11.73;;;5.85;;
71965;SDS011;59836;52.132;5.442;2022-11-11T00:11:03;12.32;;;6.35;;
71965;SDS011;59836;52.132;5.442;2022-11-11T00:13:32;10.15;;;6.32;;
71965;SDS011;59836;52.132;5.442;2022-11-11T00:16:13;10.05;;;6.22;;
71965;SDS011;59836;52.132;5.442;2022-11-11T00:18:41;12.47;;;6.90;;
71965;SDS011;59836;52.132;5.442;2022-11-11T00:21:27;13.65;;;6.55;;
71965;SDS011;59836;52.132;5.442;2022-11-11T00:24:04;13.00;;;6.75;;
71965;SDS011;59836;52.132;5.442;2022-11-11T00:26:50;10.75;;;6.47;;
71965;SDS011;59836;52.132;5.442;2022-11-11T00:29:16;13.05;;;6.28;;
71965;SDS011;59836;52.132;5.442;2022-11-11T00:31:43;10.70;;;6.27;;
71965;SDS011;59836;52.132;5.442;2022-11-11T00:34:28;12.25;;;7.13;;
71965;SDS011;59836;52.132;5.442;2022-11-11T00:36:54;12.00;;;7.13;;
71965;SDS011;59836;52.132;5.442;2022-11-11T00:39:22;13.68;;;7.72;;
71965;SDS011;59836;52.132;5.442;2022-11-11T00:41:55;13.23;;;7.45;;
71965;SDS011;59836;52.132;5.442;2022-11-11T00:44:21;12.93;;;7.93;;
71965;SDS011;59836;52.132;5.442;2022-11-11T00:46:49;13.60;;;7.55;;
71965;SDS011;59836;52.132;5.442;2022-11-11T00:49:47;14.40;;;7.43;;
71965;SDS011;59836;52.132;5.442;2022-11-11T00:52:32;14.48;;;7.97;;
71965;SDS011;59836;52.132;5.442;2022-11-11T00:54:59;16.02;;;7.60;;
71965;SDS011;59836;52.132;5.442;2022-11-11T00:57:25;17.03;;;7.93;;
71965;SDS011;59836;52.132;5.442;2022-11-11T00:59:51;12.98;;;7.40;;
71965;SDS011;59836;52.132;5.442;2022-11-11T01:02:18;12.85;;;7.20;;
71965;SDS011;59836;52.132;5.442;2022-11-11T01:04:44;14.63;;;7.97;;
71965;SDS011;59836;52.132;5.442;2022-11-11T01:07:11;14.63;;;8.18;;
71965;SDS011;59836;52.132;5.442;2022-11-11T01:09:37;15.70;;;8.17;;
71965;SDS011;59836;52.132;5.442;2022-11-11T01:12:04;12.30;;;8.23;;
71965;SDS011;59836;52.132;5.442;2022-11-11T01:14:30;16.63;;;8.40;;
71965;SDS011;59836;52.132;5.442;2022-11-11T01:16:57;17.33;;;8.77;;
71965;SDS011;59836;52.132;5.442;2022-11-11T01:19:23;13.48;;;8.77;;
71965;SDS011;59836;52.132;5.442;2022-11-11T01:21:49;18.07;;;10.03;;
71965;SDS011;59836;52.132;5.442;2022-11-11T01:24:16;17.05;;;9.48;;
71965;SDS011;59836;52.132;5.442;2022-11-11T01:26:43;19.55;;;10.73;;
71965;SDS011;59836;52.132;5.442;2022-11-11T01:29:09;15.45;;;9.32;;
71965;SDS011;59836;52.132;5.442;2022-11-11T01:31:35;19.33;;;9.23;;
71965;SDS011;59836;52.132;5.442;2022-11-11T01:34:02;18.23;;;10.57;;
71965;SDS011;59836;52.132;5.442;2022-11-11T01:36:28;18.02;;;9.65;;
71965;SDS011;59836;52.132;5.442;2022-11-11T01:38:56;17.55;;;10.30;;
71965;SDS011;59836;52.132;5.442;2022-11-11T01:41:28;17.55;;;10.35;;
71965;SDS011;59836;52.132;5.442;2022-11-11T01:49:14;18.60;;;10.65;;
71965;SDS011;59836;52.132;5.442;2022-11-11T01:55:15;18.60;;;11.27;;
71965;SDS011;59836;52.132;5.442;2022-11-11T01:57:50;20.33;;;10.65;;
71965;SDS011;59836;52.132;5.442;2022-11-11T02:00:22;19.30;;;10.50;;
71965;SDS011;59836;52.132;5.442;2022-11-11T02:03:00;19.70;;;11.38;;
71965;SDS011;59836;52.132;5.442;2022-11-11T02:05:31;21.65;;;12.00;;
71965;SDS011;59836;52.132;5.442;2022-11-11T02:08:12;21.77;;;11.48;;
71965;SDS011;59836;52.132;5.442;2022-11-11T02:11:19;18.67;;;11.23;;
71965;SDS011;59836;52.132;5.442;2022-11-11T02:14:04;19.03;;;11.00;;
71965;SDS011;59836;52.132;5.442;2022-11-11T02:16:49;18.25;;;11.20;;
71965;SDS011;59836;52.132;5.442;2022-11-11T02:19:17;22.98;;;12.00;;
71965;SDS011;59836;52.132;5.442;2022-11-11T02:21:52;21.55;;;12.18;;
71965;SDS011;59836;52.132;5.442;2022-11-11T02:24:24;23.38;;;11.63;;
71965;SDS011;59836;52.132;5.442;2022-11-11T02:26:53;20.97;;;12.50;;
71965;SDS011;59836;52.132;5.442;2022-11-11T02:29:24;19.63;;;11.68;;
71965;SDS011;59836;52.132;5.442;2022-11-11T02:31:51;21.00;;;11.13;;
71965;SDS011;59836;52.132;5.442;2022-11-11T02:34:17;19.73;;;11.05;;
71965;SDS011;59836;52.132;5.442;2022-11-11T02:36:44;21.08;;;11.95;;
71965;SDS011;59836;52.132;5.442;2022-11-11T02:39:11;17.27;;;10.43;;
71965;SDS011;59836;52.132;5.442;2022-11-11T02:41:38;20.35;;;12.00;;
71965;SDS011;59836;52.132;5.442;2022-11-11T02:44:26;22.35;;;11.68;;
71965;SDS011;59836;52.132;5.442;2022-11-11T02:46:53;26.02;;;11.60;;
71965;SDS011;59836;52.132;5.442;2022-11-11T02:49:19;22.10;;;11.15;;
71965;SDS011;59836;52.132;5.442;2022-11-11T02:51:46;22.23;;;11.73;;
71965;SDS011;59836;52.132;5.442;2022-11-11T02:54:13;20.05;;;10.35;;
71965;SDS011;59836;52.132;5.442;2022-11-11T02:56:40;22.40;;;12.15;;
71965;SDS011;59836;52.132;5.442;2022-11-11T02:59:25;23.58;;;11.65;;
71965;SDS011;59836;52.132;5.442;2022-11-11T03:01:51;18.83;;;11.38;;
71965;SDS011;59836;52.132;5.442;2022-11-11T03:04:19;18.17;;;11.40;;
71965;SDS011;59836;52.132;5.442;2022-11-11T03:06:46;20.77;;;11.73;;
71965;SDS011;59836;52.132;5.442;2022-11-11T03:09:14;23.83;;;11.60;;
71965;SDS011;59836;52.132;5.442;2022-11-11T03:11:41;23.38;;;12.38;;
71965;SDS011;59836;52.132;5.442;2022-11-11T03:14:08;19.23;;;11.90;;
71965;SDS011;59836;52.132;5.442;2022-11-11T03:16:34;22.27;;;11.43;;
71965;SDS011;59836;52.132;5.442;2022-11-11T03:19:20;21.20;;;11.07;;
71965;SDS011;59836;52.132;5.442;2022-11-11T03:21:46;21.17;;;11.32;;
71965;SDS011;59836;52.132;5.442;2022-11-11T03:24:32;20.27;;;10.82;;
71965;SDS011;59836;52.132;5.442;2022-11-11T03:27:17;20.95;;;11.25;;
71965;SDS011;59836;52.132;5.442;2022-11-11T03:29:44;22.97;;;12.13;;
71965;SDS011;59836;52.132;5.442;2022-11-11T03:32:10;21.70;;;12.57;;
71965;SDS011;59836;52.132;5.442;2022-11-11T03:34:37;25.33;;;11.60;;
71965;SDS011;59836;52.132;5.442;2022-11-11T03:37:08;20.23;;;11.15;;
71965;SDS011;59836;52.132;5.442;2022-11-11T03:39:54;20.70;;;10.68;;
71965;SDS011;59836;52.132;5.442;2022-11-11T03:42:21;17.80;;;10.17;;
71965;SDS011;59836;52.132;5.442;2022-11-11T03:44:47;22.48;;;11.75;;
71965;SDS011;59836;52.132;5.442;2022-11-11T03:47:14;20.55;;;10.60;;
71965;SDS011;59836;52.132;5.442;2022-11-11T03:49:41;21.42;;;10.82;;
71965;SDS011;59836;52.132;5.442;2022-11-11T03:52:10;21.13;;;11.35;;
71965;SDS011;59836;52.132;5.442;2022-11-11T03:54:37;21.73;;;11.40;;
71965;SDS011;59836;52.132;5.442;2022-11-11T03:57:03;19.85;;;10.63;;
71965;SDS011;59836;52.132;5.442;2022-11-11T03:59:48;19.55;;;10.77;;
71965;SDS011;59836;52.132;5.442;2022-11-11T04:02:14;21.27;;;10.77;;
71965;SDS011;59836;52.132;5.442;2022-11-11T04:04:59;18.58;;;9.93;;
71965;SDS011;59836;52.132;5.442;2022-11-11T04:07:45;19.37;;;10.07;;
71965;SDS011;59836;52.132;5.442;2022-11-11T04:10:30;18.00;;;10.85;;
71965;SDS011;59836;52.132;5.442;2022-11-11T04:12:57;16.58;;;9.70;;
71965;SDS011;59836;52.132;5.442;2022-11-11T04:15:43;18.45;;;9.32;;
71965;SDS011;59836;52.132;5.442;2022-11-11T04:18:29;20.42;;;9.90;;
71965;SDS011;59836;52.132;5.442;2022-11-11T04:21:13;15.23;;;9.77;;
71965;SDS011;59836;52.132;5.442;2022-11-11T04:23:58;19.95;;;8.98;;
71965;SDS011;59836;52.132;5.442;2022-11-11T04:26:25;17.98;;;9.15;;
71965;SDS011;59836;52.132;5.442;2022-11-11T04:28:51;19.60;;;10.60;;
71965;SDS011;59836;52.132;5.442;2022-11-11T04:31:36;16.35;;;9.30;;
71965;SDS011;59836;52.132;5.442;2022-11-11T04:34:22;17.43;;;9.67;;
71965;SDS011;59836;52.132;5.442;2022-11-11T04:36:49;18.30;;;9.75;;
71965;SDS011;59836;52.132;5.442;2022-11-11T04:39:15;17.15;;;9.63;;
71965;SDS011;59836;52.132;5.442;2022-11-11T04:42:01;15.65;;;9.30;;
71965;SDS011;59836;52.132;5.442;2022-11-11T04:44:34;15.30;;;8.85;;
71965;SDS011;59836;52.132;5.442;2022-11-11T04:47:19;14.73;;;8.37;;
71965;SDS011;59836;52.132;5.442;2022-11-11T04:49:45;16.67;;;9.27;;
71965;SDS011;59836;52.132;5.442;2022-11-11T04:52:11;25.58;;;10.27;;
71965;SDS011;59836;52.132;5.442;2022-11-11T04:54:58;16.13;;;8.43;;
71965;SDS011;59836;52.132;5.442;2022-11-11T04:57:47;19.48;;;9.40;;
71965;SDS011;59836;52.132;5.442;2022-11-11T05:00:14;15.93;;;8.53;;
71965;SDS011;59836;52.132;5.442;2022-11-11T05:02:43;16.90;;;8.85;;
71965;SDS011;59836;52.132;5.442;2022-11-11T05:05:28;18.60;;;9.18;;
71965;SDS011;59836;52.132;5.442;2022-11-11T05:08:18;16.85;;;9.27;;
71965;SDS011;59836;52.132;5.442;2022-11-11T05:11:04;16.48;;;8.68;;
71965;SDS011;59836;52.132;5.442;2022-11-11T05:13:30;17.07;;;9.23;;
71965;SDS011;59836;52.132;5.442;2022-11-11T05:16:17;16.00;;;8.57;;
71965;SDS011;59836;52.132;5.442;2022-11-11T05:19:08;17.65;;;9.23;;
71965;SDS011;59836;52.132;5.442;2022-11-11T05:21:56;17.95;;;8.70;;
71965;SDS011;59836;52.132;5.442;2022-11-11T05:24:26;14.82;;;8.70;;
71965;SDS011;59836;52.132;5.442;2022-11-11T05:27:11;17.97;;;9.33;;
71965;SDS011;59836;52.132;5.442;2022-11-11T05:29:37;15.40;;;9.82;;
71965;SDS011;59836;52.132;5.442;2022-11-11T05:32:03;16.85;;;8.95;;
71965;SDS011;59836;52.132;5.442;2022-11-11T05:34:32;15.18;;;9.35;;
71965;SDS011;59836;52.132;5.442;2022-11-11T05:36:59;17.20;;;9.68;;
71965;SDS011;59836;52.132;5.442;2022-11-11T05:39:25;16.90;;;9.33;;
71965;SDS011;59836;52.132;5.442;2022-11-11T05:41:51;16.38;;;8.20;;
71965;SDS011;59836;52.132;5.442;2022-11-11T05:44:18;15.00;;;9.75;;
71965;SDS011;59836;52.132;5.442;2022-11-11T05:46:44;13.98;;;8.88;;
71965;SDS011;59836;52.132;5.442;2022-11-11T05:49:12;13.20;;;8.70;;
71965;SDS011;59836;52.132;5.442;2022-11-11T05:51:44;14.57;;;8.53;;
71965;SDS011;59836;52.132;5.442;2022-11-11T05:54:12;13.75;;;8.75;;
71965;SDS011;59836;52.132;5.442;2022-11-11T05:56:39;11.57;;;7.88;;
71965;SDS011;59836;52.132;5.442;2022-11-11T05:59:06;15.27;;;8.70;;
71965;SDS011;59836;52.132;5.442;2022-11-11T06:01:33;14.48;;;8.38;;
71965;SDS011;59836;52.132;5.442;2022-11-11T06:04:01;18.20;;;8.47;;
71965;SDS011;59836;52.132;5.442;2022-11-11T06:06:29;14.25;;;8.85;;
71965;SDS011;59836;52.132;5.442;2022-11-11T06:08:57;14.43;;;8.40;;
71965;SDS011;59836;52.132;5.442;2022-11-11T06:11:23;14.65;;;8.80;;
71965;SDS011;59836;52.132;5.442;2022-11-11T06:13:56;18.05;;;8.82;;
71965;SDS011;59836;52.132;5.442;2022-11-11T06:16:23;15.20;;;8.70;;
71965;SDS011;59836;52.132;5.442;2022-11-11T06:18:49;13.18;;;8.00;;
71965;SDS011;59836;52.132;5.442;2022-11-11T06:21:17;14.27;;;8.55;;
71965;SDS011;59836;52.132;5.442;2022-11-11T06:23:44;14.30;;;8.30;;
71965;SDS011;59836;52.132;5.442;2022-11-11T06:26:11;14.85;;;8.77;;
71965;SDS011;59836;52.132;5.442;2022-11-11T06:28:46;15.57;;;9.37;;
71965;SDS011;59836;52.132;5.442;2022-11-11T06:31:24;16.52;;;9.10;;
71965;SDS011;59836;52.132;5.442;2022-11-11T06:33:52;16.70;;;8.88;;
71965;SDS011;59836;52.132;5.442;2022-11-11T06:36:19;17.42;;;8.82;;
71965;SDS011;59836;52.132;5.442;2022-11-11T06:38:47;15.20;;;9.15;;
71965;SDS011;59836;52.132;5.442;2022-11-11T06:41:15;16.97;;;8.33;;
71965;SDS011;59836;52.132;5.442;2022-11-11T06:43:43;19.45;;;8.93;;
71965;SDS011;59836;52.132;5.442;2022-11-11T06:46:17;15.45;;;8.85;;
71965;SDS011;59836;52.132;5.442;2022-11-11T06:48:47;16.67;;;8.68;;
71965;SDS011;59836;52.132;5.442;2022-11-11T06:51:14;15.68;;;9.18;;
71965;SDS011;59836;52.132;5.442;2022-11-11T06:53:41;17.60;;;8.73;;
71965;SDS011;59836;52.132;5.442;2022-11-11T06:56:08;15.65;;;8.50;;
71965;SDS011;59836;52.132;5.442;2022-11-11T06:58:35;20.13;;;9.40;;
71965;SDS011;59836;52.132;5.442;2022-11-11T07:01:05;14.63;;;8.57;;
71965;SDS011;59836;52.132;5.442;2022-11-11T07:03:34;19.80;;;8.82;;
71965;SDS011;59836;52.132;5.442;2022-11-11T07:06:01;18.87;;;9.80;;
71965;SDS011;59836;52.132;5.442;2022-11-11T07:08:32;15.95;;;9.00;;
71965;SDS011;59836;52.132;5.442;2022-11-11T07:11:16;15.02;;;8.68;;
71965;SDS011;59836;52.132;5.442;2022-11-11T07:13:44;17.02;;;8.68;;
71965;SDS011;59836;52.132;5.442;2022-11-11T07:16:12;19.25;;;9.18;;
71965;SDS011;59836;52.132;5.442;2022-11-11T07:18:48;14.70;;;8.70;;
71965;SDS011;59836;52.132;5.442;2022-11-11T07:21:19;17.08;;;8.82;;
71965;SDS011;59836;52.132;5.442;2022-11-11T07:26:19;15.40;;;8.32;;
71965;SDS011;59836;52.132;5.442;2022-11-11T07:28:52;14.57;;;8.45;;
71965;SDS011;59836;52.132;5.442;2022-11-11T07:31:19;13.70;;;8.10;;
71965;SDS011;59836;52.132;5.442;2022-11-11T07:33:45;18.17;;;8.75;;
71965;SDS011;59836;52.132;5.442;2022-11-11T07:36:12;18.33;;;9.43;;
71965;SDS011;59836;52.132;5.442;2022-11-11T07:41:40;16.17;;;8.05;;
71965;SDS011;59836;52.132;5.442;2022-11-11T07:44:06;13.60;;;7.97;;
71965;SDS011;59836;52.132;5.442;2022-11-11T07:46:33;17.20;;;8.90;;
71965;SDS011;59836;52.132;5.442;2022-11-11T07:48:59;15.85;;;7.78;;
71965;SDS011;59836;52.132;5.442;2022-11-11T07:51:25;16.55;;;8.77;;
71965;SDS011;59836;52.132;5.442;2022-11-11T07:53:52;16.60;;;8.75;;
71965;SDS011;59836;52.132;5.442;2022-11-11T07:56:18;13.83;;;8.47;;
71965;SDS011;59836;52.132;5.442;2022-11-11T07:58:44;16.23;;;7.85;;
71965;SDS011;59836;52.132;5.442;2022-11-11T08:01:11;17.10;;;8.05;;
71965;SDS011;59836;52.132;5.442;2022-11-11T08:03:37;17.67;;;8.25;;
71965;SDS011;59836;52.132;5.442;2022-11-11T08:06:18;16.85;;;7.55;;
71965;SDS011;59836;52.132;5.442;2022-11-11T08:08:45;16.10;;;8.10;;
71965;SDS011;59836;52.132;5.442;2022-11-11T08:11:12;14.68;;;7.88;;
71965;SDS011;59836;52.132;5.442;2022-11-11T08:13:40;17.70;;;8.18;;
71965;SDS011;59836;52.132;5.442;2022-11-11T08:16:12;16.50;;;8.50;;
71965;SDS011;59836;52.132;5.442;2022-11-11T08:18:40;17.13;;;7.80;;
71965;SDS011;59836;52.132;5.442;2022-11-11T08:21:07;14.90;;;7.97;;
71965;SDS011;59836;52.132;5.442;2022-11-11T08:23:34;16.08;;;7.95;;
71965;SDS011;59836;52.132;5.442;2022-11-11T08:26:21;13.95;;;7.53;;
71965;SDS011;59836;52.132;5.442;2022-11-11T08:28:54;14.65;;;7.65;;
71965;SDS011;59836;52.132;5.442;2022-11-11T08:31:21;17.23;;;8.20;;
71965;SDS011;59836;52.132;5.442;2022-11-11T08:33:47;16.47;;;7.60;;
71965;SDS011;59836;52.132;5.442;2022-11-11T08:36:14;17.55;;;8.27;;
71965;SDS011;59836;52.132;5.442;2022-11-11T08:38:46;14.63;;;7.78;;
71965;SDS011;59836;52.132;5.442;2022-11-11T08:41:12;13.10;;;7.10;;
71965;SDS011;59836;52.132;5.442;2022-11-11T08:43:39;15.50;;;7.75;;
71965;SDS011;59836;52.132;5.442;2022-11-11T08:46:05;13.87;;;8.17;;
71965;SDS011;59836;52.132;5.442;2022-11-11T08:48:32;14.25;;;7.80;;
71965;SDS011;59836;52.132;5.442;2022-11-11T08:50:58;15.20;;;8.15;;
71965;SDS011;59836;52.132;5.442;2022-11-11T08:53:25;14.98;;;7.35;;
71965;SDS011;59836;52.132;5.442;2022-11-11T08:55:53;14.55;;;6.93;;
71965;SDS011;59836;52.132;5.442;2022-11-11T08:58:20;14.70;;;7.80;;
71965;SDS011;59836;52.132;5.442;2022-11-11T09:00:46;13.40;;;7.80;;
71965;SDS011;59836;52.132;5.442;2022-11-11T09:03:13;14.55;;;7.32;;
71965;SDS011;59836;52.132;5.442;2022-11-11T09:05:40;13.40;;;7.55;;
71965;SDS011;59836;52.132;5.442;2022-11-11T09:08:08;13.93;;;7.50;;
71965;SDS011;59836;52.132;5.442;2022-11-11T09:10:35;11.33;;;7.20;;
71965;SDS011;59836;52.132;5.442;2022-11-11T09:13:02;11.80;;;7.10;;
71965;SDS011;59836;52.132;5.442;2022-11-11T09:15:29;13.02;;;6.82;;
71965;SDS011;59836;52.132;5.442;2022-11-11T09:17:57;14.10;;;7.65;;
71965;SDS011;59836;52.132;5.442;2022-11-11T09:20:23;12.75;;;7.03;;
71965;SDS011;59836;52.132;5.442;2022-11-11T09:22:51;14.07;;;7.63;;
71965;SDS011;59836;52.132;5.442;2022-11-11T09:25:19;13.27;;;7.43;;
71965;SDS011;59836;52.132;5.442;2022-11-11T09:27:59;13.88;;;7.43;;
71965;SDS011;59836;52.132;5.442;2022-11-11T09:30:27;12.07;;;7.03;;
71965;SDS011;59836;52.132;5.442;2022-11-11T09:32:54;13.95;;;7.35;;
71965;SDS011;59836;52.132;5.442;2022-11-11T09:35:25;11.73;;;6.80;;
71965;SDS011;59836;52.132;5.442;2022-11-11T09:37:53;13.45;;;7.20;;
71965;SDS011;59836;52.132;5.442;2022-11-11T09:40:27;14.32;;;7.55;;
71965;SDS011;59836;52.132;5.442;2022-11-11T09:49:19;15.80;;;7.80;;
71965;SDS011;59836;52.132;5.442;2022-11-11T09:54:29;13.52;;;7.28;;
71965;SDS011;59836;52.132;5.442;2022-11-11T09:57:02;13.93;;;7.35;;
71965;SDS011;59836;52.132;5.442;2022-11-11T09:59:39;12.40;;;7.35;;
71965;SDS011;59836;52.132;5.442;2022-11-11T10:05:07;11.98;;;7.38;;
71965;SDS011;59836;52.132;5.442;2022-11-11T10:07:39;12.38;;;6.85;;
71965;SDS011;59836;52.132;5.442;2022-11-11T10:12:59;14.95;;;7.68;;
71965;SDS011;59836;52.132;5.442;2022-11-11T10:15:34;12.23;;;7.20;;
71965;SDS011;59836;52.132;5.442;2022-11-11T10:24:34;15.48;;;6.68;;
71965;SDS011;59836;52.132;5.442;2022-11-11T10:27:13;15.02;;;7.15;;
71965;SDS011;59836;52.132;5.442;2022-11-11T10:29:43;12.87;;;6.73;;
71965;SDS011;59836;52.132;5.442;2022-11-11T10:32:21;13.48;;;7.25;;
71965;SDS011;59836;52.132;5.442;2022-11-11T10:44:26;11.97;;;7.10;;
71965;SDS011;59836;52.132;5.442;2022-11-11T10:55:57;12.50;;;7.03;;
71965;SDS011;59836;52.132;5.442;2022-11-11T11:04:36;13.70;;;7.35;;
71965;SDS011;59836;52.132;5.442;2022-11-11T11:07:05;14.38;;;8.27;;
71965;SDS011;59836;52.132;5.442;2022-11-11T11:21:52;13.65;;;8.57;;
71965;SDS011;59836;52.132;5.442;2022-11-11T11:24:25;14.68;;;8.77;;
71965;SDS011;59836;52.132;5.442;2022-11-11T11:27:01;17.10;;;9.03;;
71965;SDS011;59836;52.132;5.442;2022-11-11T11:29:33;17.42;;;9.30;;
71965;SDS011;59836;52.132;5.442;2022-11-11T11:32:12;14.60;;;8.60;;
71965;SDS011;59836;52.132;5.442;2022-11-11T11:34:43;15.95;;;9.18;;
71965;SDS011;59836;52.132;5.442;2022-11-11T11:37:15;13.68;;;8.00;;
71965;SDS011;59836;52.132;5.442;2022-11-11T11:39:44;14.53;;;8.90;;
71965;SDS011;59836;52.132;5.442;2022-11-11T11:45:20;14.50;;;8.63;;
71965;SDS011;59836;52.132;5.442;2022-11-11T11:48:09;13.77;;;8.18;;
71965;SDS011;59836;52.132;5.442;2022-11-11T11:51:08;14.07;;;7.60;;
71965;SDS011;59836;52.132;5.442;2022-11-11T12:17:34;14.30;;;8.60;;
71965;SDS011;59836;52.132;5.442;2022-11-11T12:20:19;12.70;;;7.75;;
71965;SDS011;59836;52.132;5.442;2022-11-11T12:23:15;12.40;;;8.03;;
71965;SDS011;59836;52.132;5.442;2022-11-11T12:29:33;14.05;;;7.57;;
71965;SDS011;59836;52.132;5.442;2022-11-11T12:51:05;17.60;;;8.93;;
71965;SDS011;59836;52.132;5.442;2022-11-11T12:53:41;17.20;;;9.40;;
71965;SDS011;59836;52.132;5.442;2022-11-11T13:05:39;12.93;;;7.85;;
71965;SDS011;59836;52.132;5.442;2022-11-11T13:08:21;14.03;;;8.27;;
71965;SDS011;59836;52.132;5.442;2022-11-11T13:16:44;13.75;;;7.70;;
71965;SDS011;59836;52.132;5.442;2022-11-11T13:19:14;13.55;;;8.07;;
71965;SDS011;59836;52.132;5.442;2022-11-11T13:21:49;13.37;;;7.60;;
71965;SDS011;59836;52.132;5.442;2022-11-11T13:24:23;13.43;;;7.60;;
71965;SDS011;59836;52.132;5.442;2022-11-11T13:26:51;14.50;;;8.18;;
71965;SDS011;59836;52.132;5.442;2022-11-11T13:32:29;15.65;;;7.63;;
71965;SDS011;59836;52.132;5.442;2022-11-11T13:35:02;13.47;;;7.97;;
71965;SDS011;59836;52.132;5.442;2022-11-11T13:37:38;13.68;;;7.78;;
71965;SDS011;59836;52.132;5.442;2022-11-11T13:43:00;11.85;;;7.30;;
71965;SDS011;59836;52.132;5.442;2022-11-11T13:48:35;14.23;;;7.53;;
71965;SDS011;59836;52.132;5.442;2022-11-11T13:57:15;14.23;;;7.68;;
71965;SDS011;59836;52.132;5.442;2022-11-11T13:59:56;13.20;;;7.03;;
71965;SDS011;59836;52.132;5.442;2022-11-11T14:02:33;12.93;;;6.93;;
71965;SDS011;59836;52.132;5.442;2022-11-11T14:19:32;11.43;;;6.82;;
71965;SDS011;59836;52.132;5.442;2022-11-11T14:24:55;14.40;;;7.10;;
71965;SDS011;59836;52.132;5.442;2022-11-11T14:27:50;13.27;;;6.57;;
71965;SDS011;59836;52.132;5.442;2022-11-11T14:47:56;12.52;;;6.03;;
71965;SDS011;59836;52.132;5.442;2022-11-11T14:53:40;11.32;;;5.90;;
71965;SDS011;59836;52.132;5.442;2022-11-11T14:56:11;10.02;;;5.53;;
71965;SDS011;59836;52.132;5.442;2022-11-11T14:58:46;9.50;;;5.53;;
71965;SDS011;59836;52.132;5.442;2022-11-11T15:01:26;9.90;;;5.63;;
71965;SDS011;59836;52.132;5.442;2022-11-11T15:04:07;9.93;;;5.20;;
71965;SDS011;59836;52.132;5.442;2022-11-11T15:25:19;10.52;;;5.43;;
71965;SDS011;59836;52.132;5.442;2022-11-11T15:34:10;9.35;;;4.75;;
71965;SDS011;59836;52.132;5.442;2022-11-11T15:39:56;9.88;;;5.65;;
71965;SDS011;59836;52.132;5.442;2022-11-11T15:45:23;9.00;;;5.18;;
71965;SDS011;59836;52.132;5.442;2022-11-11T15:47:53;10.30;;;5.10;;
71965;SDS011;59836;52.132;5.442;2022-11-11T15:53:09;9.00;;;5.45;;
71965;SDS011;59836;52.132;5.442;2022-11-11T16:01:33;9.43;;;5.75;;
71965;SDS011;59836;52.132;5.442;2022-11-11T16:03:59;9.05;;;5.53;;
71965;SDS011;59836;52.132;5.442;2022-11-11T16:09:08;10.53;;;5.13;;
71965;SDS011;59836;52.132;5.442;2022-11-11T16:11:52;7.65;;;4.97;;
71965;SDS011;59836;52.132;5.442;2022-11-11T16:14:25;10.50;;;5.18;;
71965;SDS011;59836;52.132;5.442;2022-11-11T16:17:01;10.23;;;4.72;;
71965;SDS011;59836;52.132;5.442;2022-11-11T16:19:41;9.63;;;4.60;;
71965;SDS011;59836;52.132;5.442;2022-11-11T16:22:20;8.83;;;5.07;;
71965;SDS011;59836;52.132;5.442;2022-11-11T16:27:55;7.05;;;4.35;;
71965;SDS011;59836;52.132;5.442;2022-11-11T16:33:02;11.23;;;5.40;;
71965;SDS011;59836;52.132;5.442;2022-11-11T16:35:35;9.00;;;4.70;;
71965;SDS011;59836;52.132;5.442;2022-11-11T16:38:04;11.00;;;5.30;;
71965;SDS011;59836;52.132;5.442;2022-11-11T16:45:46;7.68;;;4.70;;
71965;SDS011;59836;52.132;5.442;2022-11-11T16:51:08;7.82;;;4.90;;
71965;SDS011;59836;52.132;5.442;2022-11-11T16:56:55;7.93;;;4.45;;
71965;SDS011;59836;52.132;5.442;2022-11-11T16:59:32;11.07;;;5.93;;
71965;SDS011;59836;52.132;5.442;2022-11-11T17:02:19;9.70;;;5.53;;
71965;SDS011;59836;52.132;5.442;2022-11-11T17:04:52;9.68;;;5.18;;
71965;SDS011;59836;52.132;5.442;2022-11-11T17:07:31;9.07;;;5.20;;
71965;SDS011;59836;52.132;5.442;2022-11-11T17:10:09;8.85;;;4.93;;
71965;SDS011;59836;52.132;5.442;2022-11-11T17:12:37;7.45;;;5.05;;
71965;SDS011;59836;52.132;5.442;2022-11-11T17:15:05;8.60;;;4.37;;
71965;SDS011;59836;52.132;5.442;2022-11-11T17:17:36;7.53;;;4.38;;
71965;SDS011;59836;52.132;5.442;2022-11-11T17:22:51;6.28;;;4.50;;
71965;SDS011;59836;52.132;5.442;2022-11-11T17:25:19;8.88;;;4.82;;
71965;SDS011;59836;52.132;5.442;2022-11-11T17:30:53;9.38;;;4.93;;
71965;SDS011;59836;52.132;5.442;2022-11-11T17:33:29;9.52;;;4.70;;
71965;SDS011;59836;52.132;5.442;2022-11-11T17:35:55;9.18;;;4.75;;
71965;SDS011;59836;52.132;5.442;2022-11-11T17:48:09;8.05;;;4.45;;
71965;SDS011;59836;52.132;5.442;2022-11-11T17:53:46;6.15;;;4.07;;
71965;SDS011;59836;52.132;5.442;2022-11-11T17:56:29;7.03;;;3.93;;
71965;SDS011;59836;52.132;5.442;2022-11-11T17:58:55;6.47;;;4.10;;
71965;SDS011;59836;52.132;5.442;2022-11-11T18:04:10;8.00;;;4.22;;
71965;SDS011;59836;52.132;5.442;2022-11-11T18:06:50;8.90;;;4.50;;
71965;SDS011;59836;52.132;5.442;2022-11-11T18:12:29;7.93;;;4.38;;
71965;SDS011;59836;52.132;5.442;2022-11-11T18:15:00;5.68;;;4.18;;
71965;SDS011;59836;52.132;5.442;2022-11-11T18:17:27;7.78;;;4.60;;
71965;SDS011;59836;52.132;5.442;2022-11-11T18:22:49;7.73;;;4.07;;
71965;SDS011;59836;52.132;5.442;2022-11-11T18:25:21;7.50;;;4.45;;
71965;SDS011;59836;52.132;5.442;2022-11-11T18:27:58;7.10;;;4.35;;
71965;SDS011;59836;52.132;5.442;2022-11-11T18:30:24;6.78;;;4.50;;
71965;SDS011;59836;52.132;5.442;2022-11-11T18:32:51;8.10;;;4.35;;
71965;SDS011;59836;52.132;5.442;2022-11-11T18:35:18;8.40;;;5.00;;
71965;SDS011;59836;52.132;5.442;2022-11-11T18:37:44;7.75;;;4.80;;
71965;SDS011;59836;52.132;5.442;2022-11-11T18:40:17;10.65;;;4.65;;
71965;SDS011;59836;52.132;5.442;2022-11-11T18:42:43;8.82;;;3.65;;
71965;SDS011;59836;52.132;5.442;2022-11-11T18:51:06;7.40;;;4.68;;
71965;SDS011;59836;52.132;5.442;2022-11-11T18:53:34;9.93;;;5.30;;
71965;SDS011;59836;52.132;5.442;2022-11-11T18:56:07;8.57;;;5.50;;
71965;SDS011;59836;52.132;5.442;2022-11-11T18:58:34;9.63;;;5.88;;
71965;SDS011;59836;52.132;5.442;2022-11-11T19:01:02;8.13;;;5.10;;
71965;SDS011;59836;52.132;5.442;2022-11-11T19:03:30;8.18;;;5.43;;
71965;SDS011;59836;52.132;5.442;2022-11-11T19:06:02;7.68;;;4.95;;
71965;SDS011;59836;52.132;5.442;2022-11-11T19:08:32;7.35;;;5.75;;
71965;SDS011;59836;52.132;5.442;2022-11-11T19:11:07;8.38;;;5.28;;
71965;SDS011;59836;52.132;5.442;2022-11-11T19:13:34;12.10;;;5.10;;
71965;SDS011;59836;52.132;5.442;2022-11-11T19:16:07;8.43;;;5.22;;
71965;SDS011;59836;52.132;5.442;2022-11-11T19:18:36;8.95;;;4.63;;
71965;SDS011;59836;52.132;5.442;2022-11-11T19:21:07;7.95;;;4.78;;
71965;SDS011;59836;52.132;5.442;2022-11-11T19:23:40;8.32;;;4.30;;
71965;SDS011;59836;52.132;5.442;2022-11-11T19:26:07;6.90;;;4.97;;
71965;SDS011;59836;52.132;5.442;2022-11-11T19:28:35;8.50;;;4.90;;
71965;SDS011;59836;52.132;5.442;2022-11-11T19:31:03;7.05;;;4.25;;
71965;SDS011;59836;52.132;5.442;2022-11-11T19:33:32;7.22;;;4.72;;
71965;SDS011;59836;52.132;5.442;2022-11-11T19:36:01;6.93;;;4.47;;
71965;SDS011;59836;52.132;5.442;2022-11-11T19:38:29;8.43;;;5.23;;
71965;SDS011;59836;52.132;5.442;2022-11-11T19:41:04;8.75;;;4.93;;
71965;SDS011;59836;52.132;5.442;2022-11-11T19:43:35;9.50;;;4.90;;
71965;SDS011;59836;52.132;5.442;2022-11-11T19:46:03;8.35;;;5.22;;